Time;durP1;ratioP1;P1;durP2;ratioP2;P2;SDS_P1;SDS_P2;PMS_P1;PMS_P2;Temp;Humidity;BMP_temperature;BMP_pressure;BME280_temperature;BME280_humidity;BME280_pressure;Samples;Min_cycle;Max_cycle;Signal;HPM_P1;HPM_P2
2022/09/03 00:01:57;;;;;;;8.38;2.08;;;12.50;99.90;;;;;;4995658;28;20045;-75
2022/09/03 00:04:39;;;;;;;9.07;2.10;;;12.50;99.90;;;;;;4995495;28;20023;-75
2022/09/03 00:07:21;;;;;;;11.02;1.70;;;12.70;99.90;;;;;;4995771;28;20072;-75
2022/09/03 00:09:55;;;;;;;9.13;2.00;;;12.70;99.90;;;;;;4995634;28;20478;-75
2022/09/03 00:12:31;;;;;;;10.23;2.00;;;12.80;99.90;;;;;;4995545;28;20029;-75
2022/09/03 00:15:11;;;;;;;9.88;2.20;;;12.80;99.90;;;;;;4994309;28;20026;-74
2022/09/03 00:18:00;;;;;;;14.20;2.72;;;13.00;99.90;;;;;;4995464;28;20026;-74
2022/09/03 00:20:39;;;;;;;12.90;2.50;;;13.50;99.90;;;;;;4995365;28;20045;-74
2022/09/03 00:23:17;;;;;;;12.57;1.80;;;13.50;99.90;;;;;;4995283;28;20074;-75
2022/09/03 00:25:58;;;;;;;13.82;2.47;;;13.50;99.90;;;;;;4995354;28;20026;-74
2022/09/03 00:28:38;;;;;;;13.32;2.50;;;13.60;99.90;;;;;;4995432;28;20029;-74
2022/09/03 00:31:26;;;;;;;14.67;3.10;;;13.70;99.90;;;;;;4995040;28;20053;-73
2022/09/03 00:33:57;;;;;;;15.10;2.55;;;13.80;99.90;;;;;;4995185;28;20026;-74
2022/09/03 00:36:41;;;;;;;12.35;2.03;;;13.80;99.90;;;;;;4995312;28;20025;-74
2022/09/03 00:39:15;;;;;;;15.35;2.20;;;13.80;99.90;;;;;;4994999;28;20109;-75
2022/09/03 00:42:06;;;;;;;15.40;1.90;;;13.90;99.90;;;;;;4995128;28;20363;-74
2022/09/03 00:44:54;;;;;;;12.30;2.03;;;14.00;99.90;;;;;;4993672;28;20034;-74
2022/09/03 00:47:33;;;;;;;11.55;1.80;;;14.20;99.90;;;;;;4990813;28;20442;-74
2022/09/03 00:50:08;;;;;;;13.27;1.58;;;14.30;99.90;;;;;;4994949;28;20057;-73
2022/09/03 00:52:43;;;;;;;11.93;1.80;;;14.50;99.90;;;;;;4994741;28;20029;-74
2022/09/03 00:55:33;;;;;;;13.40;1.45;;;14.60;99.90;;;;;;4993512;28;20081;-75
2022/09/03 00:58:21;;;;;;;10.93;1.77;;;14.80;99.90;;;;;;4993047;28;20109;-73
2022/09/03 01:00:51;;;;;;;11.48;1.73;;;14.80;99.90;;;;;;4993641;28;20025;-73
2022/09/03 01:03:45;;;;;;;9.48;1.70;;;14.80;99.90;;;;;;4994567;28;20025;-73
2022/09/03 01:06:38;;;;;;;11.55;1.65;;;14.80;99.90;;;;;;4994364;28;20439;-73
2022/09/03 01:09:17;;;;;;;12.55;2.72;;;14.70;99.90;;;;;;4994538;28;20054;-74
2022/09/03 01:11:58;;;;;;;12.27;2.08;;;14.70;99.90;;;;;;4994498;28;20054;-74
2022/09/03 01:14:37;;;;;;;;;;;14.70;99.90;;;;;;4994577;28;20036;-75
2022/09/03 01:17:22;;;;;;;15.30;2.13;;;14.60;99.90;;;;;;4994344;28;20254;-73
2022/09/03 01:20:16;;;;;;;10.05;1.85;;;14.60;99.90;;;;;;4993852;28;20050;-73
2022/09/03 01:22:49;;;;;;;14.65;2.17;;;14.70;99.90;;;;;;4993338;28;20286;-74
2022/09/03 01:25:38;;;;;;;9.95;2.35;;;14.80;99.90;;;;;;4991911;28;20022;-73
2022/09/03 01:28:09;;;;;;;10.18;1.58;;;14.90;99.90;;;;;;4993696;28;20021;-73
2022/09/03 01:30:46;;;;;;;11.57;2.30;;;15.00;99.90;;;;;;4992273;28;20030;-74
2022/09/03 01:33:37;;;;;;;8.30;1.60;;;15.00;99.90;;;;;;4992532;28;20249;-72
2022/09/03 01:36:19;;;;;;;11.32;1.80;;;15.20;99.90;;;;;;4990692;28;20033;-73
2022/09/03 01:38:59;;;;;;;12.93;2.67;;;15.20;99.90;;;;;;4992208;28;20490;-72
2022/09/03 01:44:31;;;;;;;7.60;1.58;;;15.30;99.90;;;;;;4991929;28;20513;-74
2022/09/03 01:47:31;;;;;;;9.32;1.58;;;15.20;99.90;;;;;;4991850;28;20101;-73
2022/09/03 01:50:07;;;;;;;11.63;2.00;;;15.10;99.90;;;;;;4984884;28;20081;-74
2022/09/03 01:52:50;;;;;;;9.40;1.40;;;15.10;99.90;;;;;;4993949;28;20030;-75
2022/09/03 01:55:41;;;;;;;8.65;1.77;;;15.20;99.90;;;;;;4993898;28;20033;-73
2022/09/03 01:58:19;;;;;;;8.20;1.42;;;15.40;99.90;;;;;;4994036;28;20026;-74
2022/09/03 02:00:55;;;;;;;9.90;1.83;;;15.30;99.90;;;;;;4993648;28;20513;-74
2022/09/03 02:03:25;;;;;;;8.55;1.27;;;15.30;99.90;;;;;;4993978;28;20081;-74
2022/09/03 02:05:52;;;;;;;11.48;1.92;;;15.20;99.90;;;;;;4993132;28;20097;-74
2022/09/03 02:08:19;;;;;;;12.05;1.77;;;15.20;99.90;;;;;;4993543;28;20113;-73
2022/09/03 02:10:50;;;;;;;12.65;1.88;;;15.20;99.90;;;;;;4993568;28;20037;-74
2022/09/03 02:13:31;;;;;;;12.48;1.83;;;15.20;99.90;;;;;;4992315;28;20026;-74
2022/09/03 02:16:06;;;;;;;11.30;1.80;;;15.20;99.90;;;;;;4993676;28;20043;-74
2022/09/03 02:18:40;;;;;;;10.93;2.17;;;15.10;99.90;;;;;;4993847;28;20022;-75
2022/09/03 02:21:09;;;;;;;11.60;1.92;;;15.20;99.90;;;;;;4993606;28;20114;-74
2022/09/03 02:23:40;;;;;;;7.82;1.88;;;15.40;99.90;;;;;;4993446;28;20027;-74
2022/09/03 02:26:08;;;;;;;;;;;15.60;99.90;;;;;;4992673;28;20026;-74
2022/09/03 02:28:35;;;;;;;9.70;1.67;;;15.90;99.90;;;;;;4993453;28;20357;-74
2022/09/03 02:31:03;;;;;;;5.82;1.40;;;16.00;99.90;;;;;;4993386;28;20037;-74
2022/09/03 02:33:36;;;;;;;11.40;1.58;;;16.30;99.90;;;;;;4993297;28;20121;-75
2022/09/03 02:36:06;;;;;;;9.55;2.15;;;16.80;99.90;;;;;;4993306;28;20037;-74
2022/09/03 02:38:34;;;;;;;8.82;1.50;;;17.00;99.90;;;;;;4992254;28;20034;-75
2022/09/03 02:41:03;;;;;;;11.70;1.98;;;16.60;99.90;;;;;;4993292;28;20084;-75
2022/09/03 02:43:44;;;;;;;7.10;1.05;;;16.10;99.90;;;;;;4993312;28;20023;-74
2022/09/03 02:46:23;;;;;;;8.43;1.83;;;15.40;99.90;;;;;;4993306;28;20022;-74
2022/09/03 02:48:50;;;;;;;11.13;1.48;;;15.10;99.90;;;;;;4991983;28;20025;-74
2022/09/03 02:51:17;;;;;;;8.50;1.92;;;15.00;99.90;;;;;;4993151;28;20019;-75
2022/09/03 02:53:45;;;;;;;8.52;1.35;;;15.10;99.90;;;;;;4993311;28;20379;-75
2022/09/03 02:56:13;;;;;;;5.97;1.63;;;15.00;99.90;;;;;;4993089;28;20360;-75
2022/09/03 02:58:40;;;;;;;5.45;1.35;;;15.10;99.90;;;;;;4993380;28;20030;-75
2022/09/03 03:01:07;;;;;;;11.07;1.67;;;15.20;99.90;;;;;;4996850;28;20050;-74
2022/09/03 03:03:35;;;;;;;8.95;1.48;;;15.40;99.90;;;;;;4996884;28;20076;-73
2022/09/03 03:06:05;;;;;;;6.57;1.25;;;15.60;99.90;;;;;;4996466;28;20129;-73
2022/09/03 03:08:33;;;;;;;;;;;15.80;99.90;;;;;;4997213;28;20050;-74
2022/09/03 03:11:01;;;;;;;7.90;0.88;;;15.90;99.90;;;;;;4996631;28;19906;-73
2022/09/03 03:13:30;;;;;;;4.00;0.60;;;16.00;99.90;;;;;;4996724;28;20026;-74
2022/09/03 03:16:05;;;;;;;5.05;1.10;;;16.00;99.90;;;;;;4996599;28;20029;-74
2022/09/03 03:18:33;;;;;;;2.08;0.45;;;15.80;99.90;;;;;;4996499;28;20070;-74
2022/09/03 03:21:13;;;;;;;6.25;1.33;;;15.70;99.90;;;;;;4996382;28;20033;-75
2022/09/03 03:23:41;;;;;;;8.05;1.38;;;;;;;;;;4996773;28;20031;-74
2022/09/03 03:26:12;;;;;;;8.88;1.25;;;;;;;;;;4996730;28;20026;-74
2022/09/03 03:28:41;;;;;;;9.98;1.48;;;;;;;;;;4996435;28;20072;-74
2022/09/03 03:31:15;;;;;;;6.03;1.10;;;;;;;;;;4996368;28;20045;-74
2022/09/03 03:33:42;;;;;;;4.82;0.95;;;;;;;;;;4996361;28;20026;-73
2022/09/03 03:36:15;;;;;;;7.55;1.30;;;;;;;;;;4996280;28;20027;-75
2022/09/03 03:38:43;;;;;;;8.15;1.17;;;;;;;;;;4996176;28;20034;-74
2022/09/03 03:41:14;;;;;;;10.75;1.25;;;;;;;;;;4996145;28;20394;-74
2022/09/03 03:43:41;;;;;;;;;;;;;;;;;;4996471;28;20069;-74
2022/09/03 03:46:09;;;;;;;11.52;1.42;;;;;;;;;;4996053;28;19906;-74
2022/09/03 03:48:37;;;;;;;7.82;1.27;;;;;;;;;;4995958;28;20025;-74
2022/09/03 03:51:06;;;;;;;8.50;1.67;;;;;;;;;;4996229;28;20041;-74
2022/09/03 03:53:34;;;;;;;8.13;1.40;;;;;;;;;;4995859;28;20041;-74
2022/09/03 03:56:02;;;;;;;6.07;1.42;;;;;;;;;;4995893;28;20080;-74
2022/09/03 03:58:31;;;;;;;7.35;0.98;;;;;;;;;;4995983;28;20037;-73
2022/09/03 04:01:05;;;;;;;6.43;0.90;;;;;;;;;;4994437;28;20118;-73
2022/09/03 04:03:32;;;;;;;6.20;0.93;;;;;;;;;;4995888;28;20479;-74
2022/09/03 04:06:00;;;;;;;6.35;1.15;;;;;;;;;;4993446;28;20038;-73
2022/09/03 04:08:28;;;;;;;7.57;1.67;;;;;;;;;;4995267;28;20356;-74
2022/09/03 04:10:59;;;;;;;9.75;1.95;;;;;;;;;;4995134;28;20026;-74
2022/09/03 04:13:30;;;;;;;8.80;1.50;;;;;;;;;;4995775;28;20022;-74
2022/09/03 04:16:04;;;;;;;10.38;2.33;;;;;;;;;;4995665;28;20031;-74
2022/09/03 04:18:32;;;;;;;9.95;2.00;;;;;;;;;;4995508;28;20065;-74
2022/09/03 04:21:03;;;;;;;9.00;1.58;;;;;;;;;;4995435;28;20030;-73
2022/09/03 04:23:34;;;;;;;11.38;2.03;;;;;;;;;;4995265;28;20097;-74
2022/09/03 04:26:01;;;;;;;9.95;1.45;;;;;;;;;;4995548;28;20029;-73
2022/09/03 04:28:28;;;;;;;11.00;1.67;;;;;;;;;;4993929;28;20066;-74
2022/09/03 04:31:00;;;;;;;10.20;1.77;;;;;;;;;;4995502;28;20470;-75
2022/09/03 04:33:28;;;;;;;6.63;1.27;;;;;;;;;;4993778;28;20497;-73
2022/09/03 04:36:01;;;;;;;7.70;1.50;;;;;;;;;;4995158;28;20048;-73
2022/09/03 04:38:30;;;;;;;11.82;2.38;;;;;;;;;;4993631;28;20077;-74
2022/09/03 04:40:58;;;;;;;7.80;1.40;;;;;;;;;;4993740;28;20026;-74
2022/09/03 04:43:25;;;;;;;12.27;2.22;;;;;;;;;;4994908;28;20018;-74
2022/09/03 04:45:56;;;;;;;9.80;1.63;;;;;;;;;;4994348;28;20037;-74
2022/09/03 04:48:23;;;;;;;10.48;1.75;;;;;;;;;;4994058;28;20028;-74
2022/09/03 04:50:50;;;;;;;11.27;1.63;;;;;;;;;;4993937;28;20386;-74
2022/09/03 04:53:17;;;;;;;13.60;2.28;;;;;;;;;;4994010;28;20022;-74
2022/09/03 04:55:44;;;;;;;7.63;1.65;;;;;;;;;;4993788;28;20049;-74
2022/09/03 04:58:12;;;;;;;12.68;1.95;;;;;;;;;;4993719;28;20030;-75
2022/09/03 05:00:39;;;;;;;12.13;2.00;;;;;;;;;;4994021;28;20390;-74
2022/09/03 05:03:06;;;;;;;13.20;2.25;;;;;;;;;;4994617;28;20077;-74
2022/09/03 05:05:33;;;;;;;13.15;1.92;;;;;;;;;;4994526;28;20046;-74
2022/09/03 05:08:00;;;;;;;16.60;2.38;;;;;;;;;;4994576;28;20030;-73
2022/09/03 05:10:28;;;;;;;13.10;1.83;;;;;;;;;;4994492;28;20027;-73
2022/09/03 05:12:59;;;;;;;10.20;2.55;;;;;;;;;;4993179;28;20088;-74
2022/09/03 05:15:26;;;;;;;11.32;2.08;;;;;;;;;;4994533;28;20448;-74
2022/09/03 05:17:57;;;;;;;11.40;2.28;;;;;;;;;;4994413;28;20033;-75
2022/09/03 05:20:24;;;;;;;;;;;;;;;;;;4994371;28;20037;-75
2022/09/03 05:22:51;;;;;;;9.82;1.60;;;;;;;;;;4993403;28;19906;-75
2022/09/03 05:25:19;;;;;;;15.45;2.67;;;;;;;;;;4994363;28;20122;-74
2022/09/03 05:27:46;;;;;;;8.25;1.88;;;;;;;;;;4992875;28;20129;-74
2022/09/03 05:30:13;;;;;;;12.57;2.03;;;;;;;;;;4993965;28;20041;-74
2022/09/03 05:32:40;;;;;;;10.65;2.00;;;;;;;;;;4992712;28;20434;-74
2022/09/03 05:35:09;;;;;;;10.95;1.70;;;;;;;;;;4993956;28;20394;-73
2022/09/03 05:37:37;;;;;;;11.82;2.25;;;;;;;;;;4993913;28;20019;-73
2022/09/03 05:40:04;;;;;;;10.63;1.75;;;;;;;;;;4993648;28;20109;-74
2022/09/03 05:42:37;;;;;;;13.95;2.20;;;;;;;;;;4994018;28;20033;-72
2022/09/03 05:45:09;;;;;;;8.50;1.90;;;;;;;;;;4993846;28;20466;-73
2022/09/03 05:47:40;;;;;;;13.43;2.13;;;;;;;;;;4992763;28;20118;-73
2022/09/03 05:50:09;;;;;;;8.48;1.67;;;;;;;;;;4993630;28;20028;-74
2022/09/03 05:52:39;;;;;;;10.45;1.63;;;;;;;;;;4993954;28;20101;-73
2022/09/03 05:55:06;;;;;;;9.73;1.63;;;;;;;;;;4993766;28;20117;-75
2022/09/03 05:57:34;;;;;;;7.50;1.08;;;;;;;;;;4993675;28;20111;-74
2022/09/03 06:00:01;;;;;;;6.38;1.13;;;;;;;;;;4993562;28;20022;-74
2022/09/03 06:02:28;;;;;;;5.75;1.27;;;;;;;;;;4993654;28;20027;-74
2022/09/03 06:04:56;;;;;;;5.88;1.40;;;;;;;;;;4993365;28;20045;-74
2022/09/03 06:07:26;;;;;;;8.20;1.50;;;;;;;;;;4993742;28;20429;-74
2022/09/03 06:09:53;;;;;;;9.32;1.10;;;;;;;;;;4993615;28;20176;-74
2022/09/03 06:12:20;;;;;;;7.70;1.23;;;;;;;;;;4993509;28;20033;-73
2022/09/03 06:14:47;;;;;;;10.45;1.52;;;;;;;;;;4993063;28;20052;-73
2022/09/03 06:17:15;;;;;;;8.55;1.30;;;;;;;;;;4993403;28;20026;-72
2022/09/03 06:19:42;;;;;;;6.88;0.80;;;;;;;;;;4993466;28;20040;-72
2022/09/03 06:22:09;;;;;;;8.38;1.15;;;;;;;;;;4993449;28;20053;-72
2022/09/03 06:24:36;;;;;;;8.18;1.15;;;;;;;;;;4993545;28;20019;-72
2022/09/03 06:27:03;;;;;;;5.70;1.20;;;;;;;;;;4993671;28;20023;-72
2022/09/03 06:29:30;;;;;;;4.63;1.00;;;;;;;;;;4993390;28;20105;-73
2022/09/03 06:31:58;;;;;;;5.85;1.08;;;;;;;;;;4992095;28;20032;-73
2022/09/03 06:34:26;;;;;;;4.20;1.23;;;;;;;;;;4993549;28;20027;-72
2022/09/03 06:36:53;;;;;;;6.82;1.52;;;;;;;;;;4997335;28;20167;-73
2022/09/03 06:39:20;;;;;;;7.35;1.17;;;;;;;;;;4995943;28;20061;-73
2022/09/03 06:41:50;;;;;;;8.23;1.52;;;;;;;;;;4997212;28;20030;-73
2022/09/03 06:44:18;;;;;;;8.10;1.30;;;;;;;;;;4995989;28;20019;-73
2022/09/03 06:46:47;;;;;;;6.72;1.23;;;;;;;;;;4997057;28;20018;-73
2022/09/03 06:49:14;;;;;;;6.65;1.58;;;;;;;;;;4997190;28;20557;-72
2022/09/03 06:51:42;;;;;;;9.68;1.73;;;;;;;;;;4996901;28;20027;-72
2022/09/03 06:54:11;;;;;;;7.68;1.35;;;;;;;;;;4995787;28;20030;-73
2022/09/03 06:56:39;;;;;;;9.93;1.75;;;;;;;;;;4995553;28;20475;-72
2022/09/03 06:59:11;;;;;;;9.18;1.55;;;;;;;;;;4996096;28;20536;-74
2022/09/03 07:01:42;;;;;;;8.57;1.65;;;;;;;;;;4997058;28;20033;-72
2022/09/03 07:04:10;;;;;;;10.50;1.67;;;;;;;;;;4996851;28;20039;-73
2022/09/03 07:06:39;;;;;;;7.78;1.20;;;;;;;;;;4995429;28;20046;-73
2022/09/03 07:09:10;;;;;;;11.70;1.38;;;;;;;;;;4996676;28;20102;-72
2022/09/03 07:11:45;;;;;;;7.43;1.25;;;;;;;;;;4996777;28;20026;-74
2022/09/03 07:14:13;;;;;;;5.82;1.10;;;;;;;;;;4996748;28;20096;-74
2022/09/03 07:16:41;;;;;;;11.57;1.13;;;;;;;;;;4996627;28;20046;-73
2022/09/03 07:19:09;;;;;;;10.52;1.40;;;;;;;;;;4994352;28;20081;-72
2022/09/03 07:21:37;;;;;;;5.05;1.10;;;;;;;;;;4994085;28;20022;-72
2022/09/03 07:24:04;;;;;;;10.93;1.30;;;;;;;;;;4995216;28;20027;-72
2022/09/03 07:26:33;;;;;;;6.95;1.05;;;;;;;;;;4994204;28;20069;-72
2022/09/03 07:29:00;;;;;;;6.20;1.17;;;;;;;;;;4995134;28;20077;-72
2022/09/03 07:31:32;;;;;;;9.73;1.40;;;;;;;;;;4994864;28;20102;-72
2022/09/03 07:34:02;;;;;;;7.38;1.35;;;;;;;;;;4993287;28;20339;-73
2022/09/03 07:36:30;;;;;;;3.97;0.88;;;;;;;;;;4993258;28;20486;-72
2022/09/03 07:38:58;;;;;;;6.38;1.20;;;;;;;;;;4992472;28;20434;-72
2022/09/03 07:41:27;;;;;;;10.43;0.95;;;;;;;;;;4993454;28;20097;-72
2022/09/03 07:43:54;;;;;;;7.40;1.20;;;;;;;;;;4993083;28;20635;-72
2022/09/03 07:46:22;;;;;;;8.38;1.30;;;;;;;;;;4993428;28;20022;-72
2022/09/03 07:49:01;;;;;;;8.20;2.05;;;;;;;;;;4993676;28;20030;-72
2022/09/03 07:51:29;;;;;;;9.00;1.33;;;;;;;;;;4994429;28;20049;-72
2022/09/03 07:53:58;;;;;;;8.10;1.38;;;;;;;;;;4995593;28;20025;-72
2022/09/03 07:56:26;;;;;;;8.60;1.20;;;;;;;;;;4995802;28;20029;-73
2022/09/03 07:58:55;;;;;;;7.13;1.33;;;;;;;;;;4995764;28;20030;-72
2022/09/03 08:01:23;;;;;;;8.20;1.85;;;;;;;;;;4995724;28;20033;-73
2022/09/03 08:03:52;;;;;;;7.82;1.50;;;;;;;;;;4995658;28;20019;-73
2022/09/03 08:06:20;;;;;;;7.72;1.33;;;;;;;;;;4995529;28;20085;-74
2022/09/03 08:08:48;;;;;;;8.02;1.35;;;;;;;;;;4995513;28;20023;-73
2022/09/03 08:11:20;;;;;;;5.30;1.58;;;;;;;;;;4995626;28;20018;-73
2022/09/03 08:13:49;;;;;;;5.60;1.13;;;;;;;;;;4994315;28;20524;-73
2022/09/03 08:16:19;;;;;;;12.88;1.75;;;;;;;;;;4994275;28;20085;-73
2022/09/03 08:18:49;;;;;;;7.85;1.30;;;;;;;;;;4995634;28;20027;-74
2022/09/03 08:21:18;;;;;;;7.72;1.42;;;;;;;;;;4995627;28;20351;-72
2022/09/03 08:23:46;;;;;;;6.05;1.15;;;;;;;;;;4995433;28;20045;-73
2022/09/03 08:26:14;;;;;;;6.55;1.42;;;;;;;;;;4995375;28;20037;-72
2022/09/03 08:28:42;;;;;;;6.85;1.15;;;;;;;;;;4995269;28;20046;-73
2022/09/03 08:31:12;;;;;;;8.00;2.15;;;;;;;;;;4993992;28;20030;-73
2022/09/03 08:33:41;;;;;;;8.45;1.23;;;;;;;;;;4995721;28;20030;-74
2022/09/03 08:36:13;;;;;;;4.90;1.00;;;;;;;;;;4995204;28;20498;-72
2022/09/03 08:38:42;;;;;;;5.75;1.50;;;;;;;;;;4995149;28;20062;-73
2022/09/03 08:41:17;;;;;;;7.75;1.73;;;;;;;;;;4993724;28;20486;-73
2022/09/03 08:43:44;;;;;;;8.23;1.65;;;;;;;;;;4995215;28;20026;-73
2022/09/03 08:46:12;;;;;;;6.90;1.25;;;;;;;;;;4994222;28;20045;-73
2022/09/03 08:48:39;;;;;;;6.70;1.85;;;;;;;;;;4994903;28;20018;-73
2022/09/03 08:51:08;;;;;;;6.75;1.75;;;;;;;;;;4994908;28;20035;-73
2022/09/03 08:54:00;;;;;;;4.78;1.40;;;;;;;;;;4994810;28;20386;-73
2022/09/03 08:56:30;;;;;;;11.05;2.10;;;;;;;;;;4993518;28;20520;-74
2022/09/03 08:58:57;;;;;;;11.80;1.80;;;;;;;;;;4994888;28;20033;-73
2022/09/03 09:01:42;;;;;;;7.40;1.58;;;;;;;;;;4994923;28;20034;-73
2022/09/03 09:04:27;;;;;;;7.28;1.55;;;;;;;;;;4994610;28;20022;-74
2022/09/03 09:06:57;;;;;;;4.88;1.50;;;;;;;;;;4993110;28;20058;-73
2022/09/03 09:09:27;;;;;;;6.82;1.25;;;;;;;;;;4994405;28;20030;-73
2022/09/03 09:12:01;;;;;;;8.90;1.60;;;;;;;;;;4992994;28;20026;-73
2022/09/03 09:14:31;;;;;;;8.13;1.40;;;;;;;;;;4993053;28;20112;-73
2022/09/03 09:17:30;;;;;;;9.98;1.52;;;;;;;;;;4994545;28;20026;-73
2022/09/03 09:20:23;;;;;;;10.75;1.65;;;;;;;;;;4990081;28;20038;-72
2022/09/03 09:23:00;;;;;;;8.27;1.77;;;;;;;;;;4986056;28;20081;-72
2022/09/03 09:25:30;;;;;;;6.88;1.20;;;;;;;;;;4994192;28;20035;-73
2022/09/03 09:28:00;;;;;;;7.00;1.40;;;;;;;;;;4994109;28;20019;-73
2022/09/03 09:30:28;;;;;;;8.75;1.60;;;;;;;;;;4994148;28;20022;-73
2022/09/03 09:32:55;;;;;;;9.05;1.23;;;;;;;;;;4994013;28;20033;-73
2022/09/03 09:35:22;;;;;;;10.90;1.88;;;;;;;;;;4993977;28;20026;-72
2022/09/03 09:37:51;;;;;;;9.73;1.23;;;;;;;;;;4992743;28;20069;-74
2022/09/03 09:40:25;;;;;;;5.95;0.90;;;;;;;;;;4993838;28;20034;-74
2022/09/03 09:42:57;;;;;;;7.85;1.40;;;;;;;;;;4993941;28;20023;-74
2022/09/03 09:45:24;;;;;;;5.00;1.00;;;;;;;;;;4993901;28;20029;-73
2022/09/03 09:47:54;;;;;;;5.00;1.15;;;;;;;;;;4993711;28;20386;-74
2022/09/03 09:50:22;;;;;;;7.15;1.20;;;;;;;;;;4993742;28;20034;-73
2022/09/03 09:52:59;;;;;;;7.35;1.13;;;;;;;;;;4993834;28;20056;-74
2022/09/03 09:55:27;;;;;;;9.43;1.10;;;;;;;;;;4993921;28;20033;-74
2022/09/03 09:58:04;;;;;;;6.28;0.93;;;;;;;;;;4993706;28;20536;-73
2022/09/03 10:00:33;;;;;;;6.28;1.00;;;;;;;;;;4993644;28;20054;-75
2022/09/03 10:03:01;;;;;;;8.88;1.25;;;;;;;;;;4993636;28;20022;-74
2022/09/03 10:05:29;;;;;;;6.97;1.60;;;;;;;;;;4993404;28;20123;-74
2022/09/03 10:08:05;;;;;;;6.80;1.45;;;;;;;;;;4993600;28;20026;-73
2022/09/03 10:10:40;;;;;;;10.75;1.65;;;;;;;;;;4991990;28;20502;-73
2022/09/03 10:13:08;;;;;;;7.65;1.63;;;;;;;;;;4993756;28;20019;-73
2022/09/03 10:15:45;;;;;;;4.95;1.42;;;;;;;;;;4993521;28;20034;-74
2022/09/03 10:18:25;;;;;;;6.88;1.38;;;;;;;;;;4993828;28;20023;-75
2022/09/03 10:21:05;;;;;;;6.18;1.58;;;;;;;;;;4993517;28;20078;-74
2022/09/03 10:23:50;;;;;;;10.20;1.80;;;;;;;;;;4993444;28;20398;-74
2022/09/03 10:26:19;;;;;;;10.98;1.25;;;;;;;;;;4993547;28;20350;-74
2022/09/03 10:28:49;;;;;;;5.85;1.27;;;;;;;;;;4993433;28;20026;-75
2022/09/03 10:31:17;;;;;;;7.18;1.40;;;;;;;;;;4993699;28;20026;-75
2022/09/03 10:33:54;;;;;;;8.63;1.52;;;;;;;;;;4992093;28;20038;-75
2022/09/03 10:36:25;;;;;;;7.25;1.55;;;;;;;;;;4993388;28;20027;-75
2022/09/03 10:39:03;;;;;;;7.10;1.15;;;;;;;;;;4993465;28;20026;-74
2022/09/03 10:41:33;;;;;;;10.73;1.65;;;;;;;;;;4992086;28;20077;-75
2022/09/03 10:44:20;;;;;;;6.63;1.55;;;;;;;;;;4993341;28;20386;-75
2022/09/03 10:46:57;;;;;;;4.75;1.42;;;;;;;;;;4989494;28;20092;-74
2022/09/03 10:49:30;;;;;;;6.63;1.35;;;;;;;;;;4993530;28;20101;-75
2022/09/03 10:52:09;;;;;;;6.90;1.30;;;;;;;;;;4991997;28;20026;-75
2022/09/03 10:54:59;;;;;;;8.02;1.75;;;;;;;;;;4993259;28;20019;-74
2022/09/03 10:57:48;;;;;;;6.78;0.90;;;;;;;;;;4990403;28;20038;-75
2022/09/03 11:00:18;;;;;;;5.40;0.75;;;;;;;;;;4991824;28;20032;-73
2022/09/03 11:02:48;;;;;;;4.43;0.80;;;;;;;;;;4993411;28;20386;-74
2022/09/03 11:05:53;;;;;;;4.90;0.70;;;;;;;;;;4993030;28;20042;-73
2022/09/03 11:08:27;;;;;;;6.10;1.10;;;;;;;;;;4971692;28;20035;-73
2022/09/03 11:11:03;;;;;;;4.43;0.93;;;;;;;;;;4971614;28;20510;-73
2022/09/03 11:13:35;;;;;;;4.60;0.90;;;;;;;;;;4992109;28;20411;-73
2022/09/03 11:16:06;;;;;;;4.97;0.80;;;;;;;;;;4993187;28;20018;-73
2022/09/03 11:18:37;;;;;;;4.30;0.93;;;;;;;;;;4993062;28;20403;-74
2022/09/03 11:21:09;;;;;;;4.07;0.63;;;;;;;;;;4995341;28;20387;-73
2022/09/03 11:23:40;;;;;;;4.10;0.73;;;;;;;;;;4996791;28;20018;-74
2022/09/03 11:26:13;;;;;;;4.07;0.80;;;;;;;;;;4996553;28;20364;-74
2022/09/03 11:28:44;;;;;;;4.97;1.00;;;;;;;;;;4996607;28;20021;-73
2022/09/03 11:31:24;;;;;;;5.43;1.08;;;;;;;;;;4995313;28;20026;-73
2022/09/03 11:33:56;;;;;;;7.57;0.82;;;;;;;;;;4996327;28;20022;-74
2022/09/03 11:36:29;;;;;;;4.13;0.68;;;;;;;;;;4996628;28;20034;-74
2022/09/03 11:38:56;;;;;;;4.32;0.80;;;;;;;;;;4995065;28;20076;-73
2022/09/03 11:41:28;;;;;;;4.47;0.70;;;;;;;;;;4996140;28;20018;-73
2022/09/03 11:43:55;;;;;;;5.15;1.20;;;;;;;;;;4996253;28;20097;-74
2022/09/03 11:46:22;;;;;;;3.05;0.73;;;;;;;;;;4996275;28;20068;-74
2022/09/03 11:48:51;;;;;;;8.40;1.67;;;;;;;;;;4996350;28;20110;-74
2022/09/03 11:51:19;;;;;;;4.45;0.85;;;;;;;;;;4996380;28;20034;-74
2022/09/03 11:54:00;;;;;;;5.97;1.00;;;;;;;;;;4995977;28;20026;-74
2022/09/03 11:56:28;;;;;;;4.07;0.75;;;;;;;;;;4994730;28;20038;-74
2022/09/03 11:59:04;;;;;;;4.45;1.15;;;;;;;;;;4995993;28;20033;-74
2022/09/03 12:01:32;;;;;;;8.35;1.73;;;;;;;;;;4996091;28;20101;-74
2022/09/03 12:04:03;;;;;;;8.65;1.67;;;;;;;;;;4996010;28;20019;-74
2022/09/03 12:06:58;;;;;;;9.13;1.65;;;;;;;;;;4995717;28;20046;-74
2022/09/03 12:09:25;;;;;;;7.80;1.38;;;;;;;;;;4994499;28;20513;-73
2022/09/03 12:11:59;;;;;;;8.15;2.13;;;;;;;;;;4995781;28;20082;-74
2022/09/03 12:14:26;;;;;;;4.75;1.00;;;;;;;;;;4995832;28;20019;-74
2022/09/03 12:17:00;;;;;;;8.25;1.35;;;;;;;;;;4995839;28;20016;-74
2022/09/03 12:19:46;;;;;;;11.95;1.77;;;;;;;;;;4995833;28;20054;-73
2022/09/03 12:22:18;;;;;;;8.35;1.15;;;;;;;;;;4995801;28;20058;-74
2022/09/03 12:24:45;;;;;;;5.45;1.42;;;;;;;;;;4995354;28;20015;-74
2022/09/03 12:27:15;;;;;;;6.25;1.17;;;;;;;;;;4995468;28;20061;-74
2022/09/03 12:29:56;;;;;;;4.55;1.17;;;;;;;;;;4995546;28;20030;-74
2022/09/03 12:32:25;;;;;;;4.32;1.08;;;;;;;;;;4995028;28;20064;-74
2022/09/03 12:34:52;;;;;;;4.18;0.60;;;;;;;;;;4995293;28;20030;-74
2022/09/03 12:37:22;;;;;;;4.35;0.90;;;;;;;;;;4993998;28;20033;-74
2022/09/03 12:39:56;;;;;;;6.63;0.80;;;;;;;;;;4993915;28;20053;-74
2022/09/03 12:42:26;;;;;;;6.10;0.80;;;;;;;;;;4995277;28;20018;-74
2022/09/03 12:44:53;;;;;;;5.32;0.73;;;;;;;;;;4995099;28;20027;-74
2022/09/03 12:47:22;;;;;;;4.38;0.90;;;;;;;;;;4993793;28;20570;-74
2022/09/03 12:49:51;;;;;;;6.07;0.90;;;;;;;;;;4995018;28;20026;-74
2022/09/03 12:52:20;;;;;;;6.78;0.90;;;;;;;;;;4995039;28;20018;-73
2022/09/03 12:54:50;;;;;;;4.68;0.98;;;;;;;;;;4994823;28;20030;-74
2022/09/03 12:57:20;;;;;;;4.38;0.68;;;;;;;;;;4995003;28;20030;-74
2022/09/03 12:59:48;;;;;;;4.60;0.77;;;;;;;;;;4993486;28;20034;-74
2022/09/03 13:02:23;;;;;;;5.97;1.05;;;;;;;;;;4993524;28;20264;-74
2022/09/03 13:04:51;;;;;;;10.35;1.50;;;;;;;;;;4994476;28;20022;-74
2022/09/03 13:07:25;;;;;;;4.95;1.00;;;;;;;;;;4994764;28;20030;-75
2022/09/03 13:09:52;;;;;;;5.47;1.02;;;;;;;;;;4994834;28;20038;-75
2022/09/03 13:12:30;;;;;;;6.30;0.80;;;;;;;;;;4994615;28;20026;-74
2022/09/03 13:14:57;;;;;;;5.93;1.10;;;;;;;;;;4994544;28;20447;-74
2022/09/03 13:17:47;;;;;;;6.00;0.90;;;;;;;;;;4994483;28;20022;-74
2022/09/03 13:20:15;;;;;;;4.47;1.10;;;;;;;;;;4994327;28;20026;-74
2022/09/03 13:23:05;;;;;;;9.57;1.30;;;;;;;;;;4994527;28;20029;-74
2022/09/03 13:25:38;;;;;;;8.40;1.80;;;;;;;;;;4984447;28;20031;-75
2022/09/03 13:28:26;;;;;;;9.15;1.13;;;;;;;;;;4994215;28;20034;-75
2022/09/03 13:30:56;;;;;;;9.85;1.52;;;;;;;;;;4994338;28;20030;-74
2022/09/03 13:33:27;;;;;;;11.00;2.03;;;;;;;;;;4992876;28;20034;-74
2022/09/03 13:36:12;;;;;;;11.85;2.20;;;;;;;;;;4994229;28;20045;-74
2022/09/03 13:38:39;;;;;;;14.80;1.77;;;;;;;;;;4992865;28;20038;-75
2022/09/03 13:41:19;;;;;;;9.48;1.30;;;;;;;;;;4994025;28;20069;-75
2022/09/03 13:44:01;;;;;;;12.32;2.28;;;;;;;;;;4993493;28;20014;-75
2022/09/03 13:46:44;;;;;;;9.68;1.50;;;;;;;;;;4994088;28;20049;-75
2022/09/03 13:52:06;;;;;;;10.40;1.40;;;;;;;;;;4993940;28;20037;-74
2022/09/03 13:54:41;;;;;;;13.63;1.60;;;;;;;;;;4993842;28;20026;-74
2022/09/03 13:57:28;;;;;;;8.18;1.13;;;;;;;;;;4993997;28;20029;-74
2022/09/03 13:59:58;;;;;;;6.60;1.40;;;;;;;;;;4989713;28;20050;-74
2022/09/03 14:02:33;;;;;;;11.07;1.63;;;;;;;;;;4993819;28;20030;-74
2022/09/03 14:05:03;;;;;;;10.75;1.83;;;;;;;;;;4993842;28;20046;-75
2022/09/03 14:07:42;;;;;;;11.17;1.73;;;;;;;;;;4992518;28;20030;-75
2022/09/03 14:10:30;;;;;;;9.60;1.35;;;;;;;;;;4992375;28;20045;-75
2022/09/03 14:13:10;;;;;;;7.32;1.00;;;;;;;;;;4993735;28;20030;-74
2022/09/03 14:15:50;;;;;;;8.30;1.40;;;;;;;;;;4992383;28;20029;-75
2022/09/03 14:18:17;;;;;;;12.68;1.75;;;;;;;;;;4993664;28;20069;-75
2022/09/03 14:20:47;;;;;;;6.22;1.50;;;;;;;;;;4993486;28;20050;-75
2022/09/03 14:23:29;;;;;;;9.35;1.80;;;;;;;;;;4993435;28;20098;-75
2022/09/03 14:25:57;;;;;;;8.52;1.92;;;;;;;;;;4992247;28;20022;-75
2022/09/03 14:28:28;;;;;;;10.82;2.15;;;;;;;;;;4992222;28;20030;-75
2022/09/03 14:30:58;;;;;;;8.57;2.38;;;;;;;;;;4993536;28;20073;-75
2022/09/03 14:33:28;;;;;;;11.65;2.35;;;;;;;;;;4992124;28;20081;-75
2022/09/03 14:35:58;;;;;;;17.50;2.85;;;;;;;;;;4993473;28;20030;-75
2022/09/03 14:38:41;;;;;;;10.55;2.88;;;;;;;;;;4993681;28;20060;-75
2022/09/03 14:41:15;;;;;;;10.85;1.75;;;;;;;;;;4993431;28;20051;-75
2022/09/03 14:43:57;;;;;;;12.65;2.83;;;;;;;;;;4993375;28;20073;-75
2022/09/03 14:46:42;;;;;;;11.07;3.50;;;;;;;;;;4993538;28;20029;-75
2022/09/03 14:49:15;;;;;;;11.60;5.05;;;;;;;;;;4992160;28;20027;-75